To NAV CANADA Home Page Login to a new session Search on AWWS site Disclaimer Vers la page française équivalente Tips FAQ What's new on the site To the Forecasts and Observations / NOTAM section To "File a Flight Plan" website Publications and other links Update of the User's profile FIC Telephone Numbers My Weather Data Folder Route Weather Data Regional Weather Data Local Weather Data To the Forecasts and Observations / NOTAM section
Request Generated 02/23/2020 at 11:00:57 UTC . Weather information available at that time is displayed.

METAR/TAF

TORONTO/BILLY BISHOP TORONTO CITY AIRPORT/ON    (show WxCam)

METAR CYTZ 231000Z AUTO 23014KT 9SM CLR 02/M02 A3006 RMK SLP185=
METAR CYTZ 230900Z AUTO 22012KT 9SM CLR 02/M01 A3007 RMK SLP187=
METAR CYTZ 230800Z AUTO 23011KT 9SM CLR 02/M01 A3008 RMK SLP190=

TAF CYTZ 230738Z 2308/2408 23012KT P6SM FEW270
FM230900 23010KT P6SM BKN270
FM231500 22010G20KT P6SM SCT030 BKN180
FM232100 22012G22KT P6SM FEW030
BECMG 2402/2404 23010G20KT
RMK FCST BASED ON AUTO OBS. NXT FCST BY 231400Z=
Your time UTC time
Weather data provided by Environment Canada and NAV CANADA